Time;durP1;ratioP1;P1;durP2;ratioP2;P2;SDS_P1;SDS_P2;PMS_P1;PMS_P2;Temp;Humidity;BMP_temperature;BMP_pressure;BME280_temperature;BME280_humidity;BME280_pressure;Samples;Min_cycle;Max_cycle;Signal;HPM_P1;HPM_P2
2022/11/22 00:04:14;;;;;;;31.23;15.03;;;;;;;0.26;100.00;99079.69;20897675;28;20052;-63
2022/11/22 00:14:35;;;;;;;36.40;16.80;;;;;;;0.40;100.00;99066.19;20858986;22;20044;-62
2022/11/22 00:24:57;;;;;;;32.87;15.60;;;;;;;0.53;100.00;99033.88;20796544;28;20198;-62
2022/11/22 00:35:19;;;;;;;34.20;16.05;;;;;;;0.64;100.00;99005.94;20857599;28;20134;-62
2022/11/22 00:45:40;;;;;;;28.83;14.75;;;;;;;0.65;100.00;99016.13;20845158;28;20045;-62
2022/11/22 00:56:02;;;;;;;24.23;13.10;;;;;;;0.62;100.00;98997.50;20851422;28;20496;-62
2022/11/22 01:06:23;;;;;;;26.03;12.67;;;;;;;0.58;100.00;99014.78;20855213;28;20051;-62
2022/11/22 01:16:46;;;;;;;21.67;12.03;;;;;;;0.58;99.76;99019.09;20852216;28;20519;-62
2022/11/22 01:27:07;;;;;;;20.60;11.65;;;;;;;0.56;99.78;99018.34;20857872;28;20053;-62
2022/11/22 01:37:29;;;;;;;20.00;11.83;;;;;;;0.55;98.75;99006.44;20850600;28;20072;-62
2022/11/22 01:47:51;;;;;;;18.53;11.30;;;;;;;0.54;99.34;98989.41;20854621;28;20099;-62
2022/11/22 01:58:14;;;;;;;21.30;11.82;;;;;;;0.50;99.50;98993.03;20830632;28;20044;-62
2022/11/22 02:09:01;;;;;;;20.25;11.35;;;;;;;0.51;98.57;98989.56;20842943;28;20106;-63
2022/11/22 02:19:38;;;;;;;21.63;11.63;;;;;;;0.52;98.62;98960.47;20844817;28;20046;-62
2022/11/22 02:29:59;;;;;;;26.77;12.15;;;;;;;0.53;98.60;98965.50;20826561;28;20037;-62
2022/11/22 02:40:22;;;;;;;21.80;11.47;;;;;;;0.53;99.28;98928.81;20849703;28;20063;-62
2022/11/22 02:50:43;;;;;;;27.30;12.23;;;;;;;0.54;100.00;98940.72;20835607;28;20083;-62
2022/11/22 03:01:05;;;;;;;22.30;12.40;;;;;;;0.47;100.00;98932.53;20847665;28;20060;-62
2022/11/22 03:11:26;;;;;;;27.80;13.43;;;;;;;0.51;100.00;98920.38;20853993;28;20107;-62
2022/11/22 03:21:49;;;;;;;30.00;13.60;;;;;;;0.51;100.00;98933.19;20858931;28;20124;-62
2022/11/22 03:32:10;;;;;;;27.40;13.85;;;;;;;0.60;100.00;98924.97;20872684;28;20066;-64
2022/11/22 03:42:32;;;;;;;31.13;13.43;;;;;;;0.64;100.00;98918.78;20900586;28;20433;-64
2022/11/22 03:52:53;;;;;;;30.63;13.87;;;;;;;0.68;100.00;98925.41;20952453;28;20072;-64
2022/11/22 04:03:16;;;;;;;39.77;14.87;;;;;;;0.72;100.00;98922.59;20890005;28;20085;-64
2022/11/22 04:34:57;;;;;;;42.45;17.60;;;;;;;0.77;100.00;98912.91;20921932;28;20094;-64
2022/11/22 04:45:19;;;;;;;39.47;16.07;;;;;;;0.83;100.00;98916.88;20875482;28;20053;-65
2022/11/22 04:55:45;;;;;;;44.80;16.77;;;;;;;0.89;100.00;98913.94;20878801;28;20072;-65
2022/11/22 05:06:06;;;;;;;43.72;17.58;;;;;;;0.91;100.00;98930.06;20866045;28;20068;-66
2022/11/22 05:16:28;;;;;;;43.33;17.70;;;;;;;0.94;100.00;98934.13;20880991;28;20053;-65
2022/11/22 05:26:49;;;;;;;39.40;17.50;;;;;;;0.98;100.00;98952.72;20865657;28;20059;-65
2022/11/22 05:37:11;;;;;;;41.13;16.80;;;;;;;1.01;100.00;98935.44;20920524;28;20049;-66
2022/11/22 05:47:34;;;;;;;42.97;17.13;;;;;;;1.05;100.00;98936.91;20857930;28;20052;-66
2022/11/22 05:58:02;;;;;;;37.28;16.73;;;;;;;1.08;100.00;98939.28;20851014;28;20041;-66
2022/11/22 06:08:24;;;;;;;40.40;17.35;;;;;;;1.11;100.00;98951.94;20863333;28;20057;-66
2022/11/22 06:18:46;;;;;;;36.70;16.23;;;;;;;1.18;100.00;98953.25;20856154;28;20075;-67
2022/11/22 06:29:08;;;;;;;38.83;16.13;;;;;;;1.20;100.00;98951.41;20822004;22;20053;-70
2022/11/22 06:39:29;;;;;;;33.33;15.20;;;;;;;1.27;100.00;98952.75;20870314;28;20192;-70
2022/11/22 06:49:51;;;;;;;38.22;16.98;;;;;;;1.35;100.00;98944.59;20882956;28;20404;-71
2022/11/22 07:00:13;;;;;;;35.67;17.27;;;;;;;1.45;100.00;98945.72;20895209;28;20227;-71
2022/11/22 07:10:35;;;;;;;;;;;;;;;1.48;100.00;98956.63;20887593;28;20041;-71
2022/11/22 07:21:01;;;;;;;37.03;16.03;;;;;;;1.53;100.00;98967.44;20902885;28;19921;-71
2022/11/22 07:31:27;;;;;;;37.65;16.10;;;;;;;1.58;100.00;98982.59;20883753;28;20467;-71
2022/11/22 07:41:48;;;;;;;38.03;16.67;;;;;;;1.66;100.00;99006.91;20891702;28;20052;-71
2022/11/22 07:52:10;;;;;;;37.37;16.60;;;;;;;1.70;100.00;99003.25;20897700;28;20052;-70
2022/11/22 08:02:31;;;;;;;36.73;15.77;;;;;;;1.76;100.00;98997.75;20909941;28;20080;-71
2022/11/22 08:12:56;;;;;;;32.93;14.50;;;;;;;1.79;100.00;99017.31;20896787;28;20454;-70
2022/11/22 08:23:18;;;;;;;35.90;15.43;;;;;;;1.87;100.00;99026.22;20903455;28;20088;-70
2022/11/22 08:33:40;;;;;;;37.70;17.05;;;;;;;1.95;100.00;99036.84;20887134;28;20098;-70
2022/11/22 08:44:02;;;;;;;34.43;15.90;;;;;;;2.09;100.00;99039.44;20879348;28;20044;-69
2022/11/22 08:54:23;;;;;;;34.33;15.48;;;;;;;2.19;100.00;99048.25;20894250;28;20139;-69
2022/11/22 09:04:45;;;;;;;33.73;15.03;;;;;;;2.25;100.00;99059.03;20926147;28;20056;-69
2022/11/22 09:15:07;;;;;;;32.77;14.63;;;;;;;2.33;100.00;99050.84;20890680;28;20060;-69
2022/11/22 09:25:28;;;;;;;29.63;14.40;;;;;;;2.43;100.00;99059.66;20949846;28;20083;-71
2022/11/22 09:35:49;;;;;;;34.27;15.23;;;;;;;2.59;100.00;99068.91;20883682;28;20069;-69
2022/11/22 09:46:31;;;;;;;30.73;14.77;;;;;;;2.78;100.00;99078.91;20872601;28;20578;-69
2022/11/22 09:56:56;;;;;;;;;;;;;;;2.98;100.00;99077.59;20885562;28;20042;-69
2022/11/22 10:07:23;;;;;;;27.15;14.43;;;;;;;3.07;100.00;99074.44;20884692;28;19970;-69
2022/11/22 10:17:57;;;;;;;30.98;14.70;;;;;;;3.21;100.00;99076.97;20882971;28;20049;-68
2022/11/22 10:28:34;;;;;;;24.85;12.95;;;;;;;3.33;100.00;99083.09;20882768;28;20041;-71
2022/11/22 10:38:59;;;;;;;32.83;14.43;;;;;;;3.44;100.00;99075.53;20887500;28;20090;-69
2022/11/22 10:49:40;;;;;;;24.10;13.10;;;;;;;3.56;100.00;99075.56;20884239;28;20118;-69
2022/11/22 11:00:17;;;;;;;27.57;12.97;;;;;;;3.65;100.00;99067.25;20880172;28;20068;-69
2022/11/22 11:10:39;;;;;;;25.73;10.85;;;;;;;3.78;100.00;99065.56;20866060;28;20280;-69
2022/11/22 11:21:01;;;;;;;22.02;10.82;;;;;;;3.91;100.00;99064.63;20874214;28;20091;-69
2022/11/22 11:31:41;;;;;;;20.40;11.30;;;;;;;4.27;100.00;99048.47;20886739;28;20041;-69
2022/11/22 11:42:24;;;;;;;23.63;10.38;;;;;;;4.41;100.00;99051.78;20879409;28;20476;-70
2022/11/22 11:53:01;;;;;;;19.65;9.38;;;;;;;4.51;100.00;99051.97;20940591;28;20080;-67
2022/11/22 12:03:24;;;;;;;15.48;8.52;;;;;;;4.73;100.00;99064.09;20917878;28;20418;-70
2022/11/22 12:13:49;;;;;;;16.38;7.80;;;;;;;4.87;100.00;99056.22;20929680;28;20026;-69
2022/11/22 12:24:42;;;;;;;14.38;6.60;;;;;;;4.97;100.00;99046.91;20952593;23;20109;-73
2022/11/22 12:35:26;;;;;;;19.05;8.00;;;;;;;4.92;100.00;99049.00;20867794;28;20516;-74
2022/11/22 12:45:52;;;;;;;17.50;7.22;;;;;;;5.10;100.00;99047.69;20837428;28;20088;-74
2022/11/22 12:56:28;;;;;;;15.77;8.13;;;;;;;5.33;100.00;99048.63;20855021;28;20156;-74
2022/11/22 13:07:18;;;;;;;15.25;7.28;;;;;;;5.50;100.00;99053.41;20857221;28;20501;-75
2022/11/22 13:17:40;;;;;;;22.25;5.63;;;;;;;5.62;100.00;99053.34;20841466;28;20038;-74
2022/11/22 13:28:10;;;;;;;10.30;4.50;;;;;;;5.58;100.00;99049.34;20836512;28;20107;-74
2022/11/22 13:38:31;;;;;;;8.20;4.00;;;;;;;5.72;100.00;99069.84;20807482;28;20119;-74
2022/11/22 13:48:53;;;;;;;11.77;3.87;;;;;;;5.89;100.00;99070.28;20836280;28;20042;-75
2022/11/22 13:59:17;;;;;;;6.28;3.40;;;;;;;5.99;100.00;99080.75;20827870;28;20598;-75
2022/11/22 14:09:43;;;;;;;12.82;3.15;;;;;;;5.98;100.00;99064.44;20828406;28;20045;-75
2022/11/22 14:20:32;;;;;;;9.93;4.57;;;;;;;5.95;100.00;99058.69;20828250;28;20149;-74
2022/11/22 14:30:56;;;;;;;14.90;6.38;;;;;;;5.86;100.00;99059.34;20842588;28;20539;-75
2022/11/22 14:41:37;;;;;;;12.15;6.75;;;;;;;5.76;100.00;99060.94;20837082;28;20050;-72
2022/11/22 14:52:00;;;;;;;13.35;6.57;;;;;;;5.66;100.00;99057.38;20818452;28;20064;-75
2022/11/22 15:02:59;;;;;;;16.13;6.68;;;;;;;5.57;100.00;99068.34;20810918;28;20103;-73
2022/11/22 15:13:37;;;;;;;13.55;6.72;;;;;;;5.52;100.00;99065.31;20801471;28;20447;-73
2022/11/22 15:23:58;;;;;;;14.60;7.13;;;;;;;5.47;100.00;99066.53;20839572;28;20045;-74
2022/11/22 15:34:46;;;;;;;12.57;6.45;;;;;;;5.43;100.00;99086.63;20827402;28;20153;-74
2022/11/22 15:45:31;;;;;;;11.13;6.03;;;;;;;5.39;100.00;99092.13;20831328;28;20053;-74
2022/11/22 15:56:28;;;;;;;12.55;6.25;;;;;;;5.34;100.00;99094.19;20836818;28;20051;-75
2022/11/22 16:07:26;;;;;;;11.80;6.38;;;;;;;5.36;100.00;99094.91;20838869;28;20072;-74
2022/11/22 16:17:53;;;;;;;15.45;6.18;;;;;;;5.36;100.00;99093.16;20845378;28;20312;-74
2022/11/22 16:28:37;;;;;;;14.10;6.57;;;;;;;5.35;100.00;99078.59;20823473;28;20045;-74
2022/11/22 16:38:58;;;;;;;13.93;6.93;;;;;;;5.33;100.00;99085.63;20833773;28;20498;-76
2022/11/22 16:49:21;;;;;;;8.93;3.77;;;;;;;5.17;100.00;99079.91;20813174;28;20099;-77
2022/11/22 16:59:43;;;;;;;14.30;5.78;;;;;;;5.02;100.00;99080.16;20829633;28;20643;-74
2022/11/22 17:10:05;;;;;;;12.20;6.00;;;;;;;4.99;100.00;99101.84;20822064;28;20503;-74
2022/11/22 17:20:26;;;;;;;;;;;;;;;4.98;100.00;99123.41;20828432;28;20086;-75
2022/11/22 17:30:49;;;;;;;10.48;5.75;;;;;;;4.95;100.00;99120.22;20826845;28;19935;-73
2022/11/22 17:41:10;;;;;;;10.83;5.23;;;;;;;4.96;100.00;99138.19;20807912;28;20084;-74
2022/11/22 17:51:32;;;;;;;10.33;5.77;;;;;;;4.97;100.00;99142.41;20833959;28;20065;-73
2022/11/22 18:01:53;;;;;;;12.57;5.93;;;;;;;5.02;100.00;99144.72;20809442;28;20132;-72
2022/11/22 18:12:15;;;;;;;14.90;6.57;;;;;;;5.06;100.00;99138.38;20787238;28;20206;-72
2022/11/22 18:22:36;;;;;;;13.10;5.83;;;;;;;5.07;100.00;99155.53;20790831;28;20228;-72
2022/11/22 18:32:59;;;;;;;10.40;5.70;;;;;;;4.98;100.00;99151.81;20686871;22;20292;-62
2022/11/22 18:43:20;;;;;;;11.57;5.65;;;;;;;4.96;100.00;99158.84;20529742;28;20038;-64
2022/11/22 18:53:42;;;;;;;12.50;5.87;;;;;;;4.94;100.00;99155.56;20547896;28;20051;-63
2022/11/22 19:04:03;;;;;;;10.73;5.10;;;;;;;4.86;100.00;99147.50;20540265;28;20078;-63
2022/11/22 19:14:27;;;;;;;13.97;5.47;;;;;;;4.79;100.00;99143.69;20594251;28;20039;-63
2022/11/22 19:24:50;;;;;;;9.82;4.85;;;;;;;4.71;100.00;99140.00;20531065;28;20333;-64
2022/11/22 19:35:12;;;;;;;13.55;5.28;;;;;;;4.62;100.00;99147.53;20535396;28;20051;-63
2022/11/22 19:45:33;;;;;;;19.00;5.50;;;;;;;4.61;100.00;99153.59;20531323;28;20035;-63
2022/11/22 19:56:00;;;;;;;15.60;6.03;;;;;;;4.63;100.00;99151.75;20532298;28;20586;-63
2022/11/22 20:06:22;;;;;;;9.68;5.07;;;;;;;4.62;100.00;99157.84;20522861;28;20554;-63
2022/11/22 20:16:44;;;;;;;;;;;;;;;4.57;100.00;99154.72;20531969;28;20110;-63
2022/11/22 20:27:08;;;;;;;11.45;5.10;;;;;;;4.50;100.00;99158.66;20530532;28;19926;-64
2022/11/22 20:37:29;;;;;;;11.18;5.60;;;;;;;4.52;100.00;99156.78;20529239;28;20487;-65
2022/11/22 20:47:50;;;;;;;20.27;5.87;;;;;;;4.53;100.00;99163.59;20530384;28;20043;-64
2022/11/22 20:58:12;;;;;;;15.63;5.43;;;;;;;4.56;100.00;99158.25;20525701;28;20034;-63
2022/11/22 21:08:34;;;;;;;13.17;4.53;;;;;;;4.58;100.00;99152.06;20532063;28;20043;-63
2022/11/22 21:18:59;;;;;;;15.37;4.50;;;;;;;4.58;100.00;99162.38;20527839;28;20125;-63
2022/11/22 21:29:21;;;;;;;9.95;3.78;;;;;;;4.66;100.00;99159.28;20527092;28;20383;-64
2022/11/22 21:39:43;;;;;;;9.97;3.73;;;;;;;4.70;100.00;99169.31;20521929;28;20047;-67
2022/11/22 21:50:05;;;;;;;9.68;3.33;;;;;;;4.75;100.00;99165.47;20539390;28;20050;-63
2022/11/22 22:00:32;;;;;;;9.38;3.35;;;;;;;4.82;100.00;99177.03;20571145;28;20039;-63
2022/11/22 22:10:57;;;;;;;6.77;2.73;;;;;;;4.89;100.00;99175.69;20600042;28;20537;-64
2022/11/22 22:21:19;;;;;;;8.95;2.75;;;;;;;4.98;100.00;99167.31;20530565;28;20051;-64
2022/11/22 22:31:41;;;;;;;7.90;2.88;;;;;;;5.01;100.00;99180.00;20546011;28;20102;-64
2022/11/22 22:42:03;;;;;;;8.17;2.37;;;;;;;4.98;100.00;99193.13;20515885;28;20038;-65
2022/11/22 22:52:24;;;;;;;7.53;2.50;;;;;;;5.07;100.00;99182.19;20579737;28;20043;-63
2022/11/22 23:02:46;;;;;;;8.13;2.63;;;;;;;5.08;100.00;99183.84;20585030;28;20505;-66
2022/11/22 23:13:07;;;;;;;3.33;2.13;;;;;;;5.13;100.00;99186.91;20523427;28;20366;-65
2022/11/22 23:23:29;;;;;;;7.83;2.23;;;;;;;5.21;100.00;99187.22;20531502;28;20628;-65
2022/11/22 23:33:51;;;;;;;4.40;1.88;;;;;;;5.24;100.00;99188.75;20533196;28;20330;-65
2022/11/22 23:44:12;;;;;;;4.20;2.00;;;;;;;5.35;100.00;99192.25;20538200;28;20158;-65
2022/11/22 23:54:34;;;;;;;3.37;1.97;;;;;;;5.43;100.00;99189.16;20533222;28;20039;-64
